Time;durP1;ratioP1;P1;durP2;ratioP2;P2;SDS_P1;SDS_P2;PMS_P1;PMS_P2;Temp;Humidity;BMP_temperature;BMP_pressure;BME280_temperature;BME280_humidity;BME280_pressure;Samples;Min_cycle;Max_cycle;Signal;HPM_P1;HPM_P2
2022/05/08 00:02:24;;;;;;;1.45;1.35;;;11.00;99.90;;;;;;5077680;28;20043;-76
2022/05/08 00:04:51;;;;;;;1.27;1.10;;;11.00;99.90;;;;;;5078411;28;20568;-76
2022/05/08 00:07:18;;;;;;;1.83;1.35;;;11.00;99.90;;;;;;5083318;28;20024;-75
2022/05/08 00:09:45;;;;;;;2.67;1.55;;;11.00;99.90;;;;;;5083157;28;20027;-76
2022/05/08 00:12:13;;;;;;;1.17;1.00;;;11.00;99.90;;;;;;5079763;28;20058;-76
2022/05/08 00:14:41;;;;;;;1.30;1.17;;;11.00;99.90;;;;;;5080062;28;20024;-76
2022/05/08 00:17:11;;;;;;;2.35;1.25;;;11.00;99.90;;;;;;5077687;28;20447;-76
2022/05/08 00:19:38;;;;;;;1.30;1.20;;;10.90;99.90;;;;;;5079620;28;20046;-76
2022/05/08 00:22:05;;;;;;;2.95;1.00;;;10.90;99.90;;;;;;5081820;28;20016;-75
2022/05/08 00:24:32;;;;;;;1.45;1.27;;;10.90;99.90;;;;;;5081920;28;20055;-77
2022/05/08 00:26:57;;;;;;;1.08;1.02;;;10.80;99.90;;;;;;5078055;28;20141;-76
2022/05/08 00:29:23;;;;;;;1.90;1.42;;;10.80;99.90;;;;;;5076414;28;20115;-76
2022/05/08 00:31:49;;;;;;;2.88;1.40;;;10.80;99.90;;;;;;5082055;23;20498;-76
2022/05/08 00:34:14;;;;;;;2.13;1.52;;;10.80;99.90;;;;;;5048841;28;20036;-76
2022/05/08 00:36:40;;;;;;;1.98;1.40;;;10.80;99.90;;;;;;5049529;28;20021;-77
2022/05/08 00:39:06;;;;;;;2.35;1.65;;;10.70;99.90;;;;;;5050029;28;20492;-76
2022/05/08 00:41:32;;;;;;;1.83;1.17;;;10.70;99.90;;;;;;5052795;28;20028;-76
2022/05/08 00:43:57;;;;;;;1.38;1.27;;;10.70;99.90;;;;;;5068302;28;20025;-77
2022/05/08 00:46:23;;;;;;;2.42;1.50;;;10.50;99.90;;;;;;5062453;28;20034;-76
2022/05/08 00:48:49;;;;;;;2.33;1.83;;;10.60;99.90;;;;;;5057725;28;20040;-76
2022/05/08 00:51:16;;;;;;;2.63;1.90;;;10.60;99.90;;;;;;5060099;28;20087;-76
2022/05/08 00:53:50;;;;;;;2.88;2.15;;;10.70;99.90;;;;;;5061469;28;20104;-77
2022/05/08 00:56:18;;;;;;;3.00;2.42;;;10.60;99.90;;;;;;5056495;28;20038;-76
2022/05/08 00:58:46;;;;;;;3.55;2.20;;;10.60;99.90;;;;;;5058768;28;20021;-76
2022/05/08 01:01:13;;;;;;;2.47;2.05;;;10.60;99.90;;;;;;5059367;28;20021;-76
2022/05/08 01:03:39;;;;;;;3.08;1.88;;;10.50;99.90;;;;;;5062731;28;20021;-75
2022/05/08 01:06:06;;;;;;;2.92;2.15;;;10.40;99.90;;;;;;5058353;28;20482;-76
2022/05/08 01:08:34;;;;;;;2.58;1.92;;;10.40;99.90;;;;;;5059490;28;20032;-76
2022/05/08 01:11:04;;;;;;;4.93;2.38;;;10.30;99.90;;;;;;5062216;28;20532;-76
2022/05/08 01:13:30;;;;;;;3.08;2.10;;;10.40;99.90;;;;;;5057791;28;20029;-76
2022/05/08 01:15:56;;;;;;;3.10;2.00;;;10.50;99.90;;;;;;5061035;28;20381;-76
2022/05/08 01:18:22;;;;;;;4.15;2.50;;;10.40;99.90;;;;;;5061950;28;20024;-76
2022/05/08 01:20:48;;;;;;;4.05;2.70;;;10.30;99.90;;;;;;5057498;28;20389;-76
2022/05/08 01:23:15;;;;;;;3.03;2.47;;;10.30;99.90;;;;;;5064296;28;20029;-76
2022/05/08 01:25:50;;;;;;;3.42;2.47;;;10.20;99.90;;;;;;5058448;28;20032;-76
2022/05/08 01:28:16;;;;;;;4.68;2.63;;;10.30;99.90;;;;;;5061170;28;20075;-76
2022/05/08 01:33:18;;;;;;;5.63;2.40;;;10.10;99.90;;;;;;5065823;28;20055;-76
2022/05/08 01:35:45;;;;;;;3.38;2.55;;;10.10;99.90;;;;;;5068097;28;20098;-77
2022/05/08 01:38:13;;;;;;;4.15;2.25;;;9.90;99.90;;;;;;5069563;28;20490;-74
2022/05/08 01:40:40;;;;;;;2.50;1.80;;;9.80;99.90;;;;;;5069310;28;20024;-76
2022/05/08 01:43:06;;;;;;;2.47;2.08;;;9.70;99.90;;;;;;5078315;28;20020;-74
2022/05/08 01:45:33;;;;;;;3.00;1.90;;;9.60;99.90;;;;;;5077074;28;20478;-76
2022/05/08 01:50:44;;;;;;;2.42;1.45;;;9.40;99.90;;;;;;5081613;28;20042;-76
2022/05/08 01:53:10;;;;;;;2.58;1.48;;;9.30;99.90;;;;;;5078494;28;20112;-76
2022/05/08 01:55:36;;;;;;;2.65;1.73;;;9.20;99.90;;;;;;5076698;28;20020;-76
2022/05/08 01:58:02;;;;;;;3.92;1.98;;;9.20;99.90;;;;;;5081773;28;20065;-76
2022/05/08 02:00:29;;;;;;;3.20;1.65;;;9.20;99.90;;;;;;5077336;28;21193;-76
2022/05/08 02:02:58;;;;;;;5.07;2.40;;;9.30;99.90;;;;;;5076563;28;20020;-77
2022/05/08 02:05:24;;;;;;;3.20;1.88;;;9.30;99.90;;;;;;5085711;28;20108;-76
2022/05/08 02:07:50;;;;;;;3.55;2.40;;;9.20;99.90;;;;;;5081648;28;20024;-76
2022/05/08 02:10:18;;;;;;;2.78;1.95;;;9.20;99.90;;;;;;5081266;28;20033;-76
2022/05/08 02:12:44;;;;;;;3.00;1.92;;;9.20;99.90;;;;;;5085290;28;20024;-76
2022/05/08 02:15:12;;;;;;;3.45;2.28;;;9.30;99.90;;;;;;5081020;28;20031;-76
2022/05/08 02:17:38;;;;;;;3.17;2.00;;;9.30;99.90;;;;;;5080970;28;20473;-76
2022/05/08 02:20:06;;;;;;;6.40;2.10;;;9.40;99.90;;;;;;5083689;28;20433;-76
2022/05/08 02:22:33;;;;;;;5.18;2.40;;;9.40;99.90;;;;;;5083063;28;20024;-76
2022/05/08 02:24:59;;;;;;;3.85;1.90;;;9.40;99.90;;;;;;5082551;28;20036;-76
2022/05/08 02:27:24;;;;;;;3.92;2.30;;;9.40;99.90;;;;;;5078815;28;20036;-76
2022/05/08 02:29:51;;;;;;;6.93;3.00;;;9.30;99.90;;;;;;5084838;28;20073;-76
2022/05/08 02:32:18;;;;;;;3.85;1.90;;;9.20;99.90;;;;;;5082191;28;20125;-76
2022/05/08 02:34:44;;;;;;;5.68;2.00;;;9.10;99.90;;;;;;5079391;28;20025;-76
2022/05/08 02:37:11;;;;;;;6.38;2.88;;;9.00;99.90;;;;;;5085044;28;20031;-76
2022/05/08 02:39:37;;;;;;;5.72;2.22;;;8.80;99.90;;;;;;5081675;28;20087;-77
2022/05/08 02:42:03;;;;;;;4.32;2.42;;;8.70;99.90;;;;;;5079818;28;20032;-76
2022/05/08 02:44:29;;;;;;;2.33;1.83;;;8.70;99.90;;;;;;5083589;28;20030;-77
2022/05/08 02:46:54;;;;;;;5.30;2.30;;;8.60;99.90;;;;;;5081683;28;20025;-76
2022/05/08 02:49:20;;;;;;;6.72;3.40;;;8.50;99.90;;;;;;5079655;28;20020;-76
2022/05/08 02:51:46;;;;;;;5.00;2.60;;;8.60;99.90;;;;;;5083847;28;20032;-76
2022/05/08 02:54:12;;;;;;;4.40;2.42;;;8.60;99.90;;;;;;5085952;28;20111;-76
2022/05/08 02:59:21;;;;;;;5.38;2.97;;;8.50;99.90;;;;;;5083756;28;20026;-77
2022/05/08 03:01:47;;;;;;;4.55;2.80;;;8.50;99.90;;;;;;5103361;22;20053;-76
2022/05/08 03:04:13;;;;;;;5.30;3.53;;;8.40;99.90;;;;;;5051792;28;20035;-77
2022/05/08 03:06:39;;;;;;;8.15;3.38;;;8.30;99.90;;;;;;5052138;28;20100;-77
2022/05/08 03:09:05;;;;;;;7.88;3.30;;;8.30;99.90;;;;;;5052011;28;20025;-77
2022/05/08 03:11:32;;;;;;;7.55;3.35;;;8.20;99.90;;;;;;5054490;28;20037;-77
2022/05/08 03:13:58;;;;;;;6.20;3.58;;;8.10;99.90;;;;;;5068828;28;20032;-77
2022/05/08 03:16:27;;;;;;;6.38;4.00;;;8.20;99.90;;;;;;5063294;28;20029;-77
2022/05/08 03:18:53;;;;;;;6.20;3.97;;;8.20;99.90;;;;;;5060256;28;20560;-77
2022/05/08 03:21:19;;;;;;;7.38;3.72;;;8.20;99.90;;;;;;5061217;28;20033;-77
2022/05/08 03:23:46;;;;;;;12.02;4.18;;;8.20;99.90;;;;;;5064126;28;20489;-77
2022/05/08 03:26:14;;;;;;;8.45;4.20;;;8.20;99.90;;;;;;5059631;28;20039;-77
2022/05/08 03:28:40;;;;;;;6.78;4.30;;;8.20;99.90;;;;;;5061474;28;20021;-77
2022/05/08 03:31:07;;;;;;;11.18;4.03;;;8.10;99.90;;;;;;5063828;28;20037;-77
2022/05/08 03:33:34;;;;;;;11.93;3.85;;;8.10;99.90;;;;;;5065086;28;20462;-77
2022/05/08 03:36:00;;;;;;;8.95;3.97;;;8.10;99.90;;;;;;5061865;28;20036;-77
2022/05/08 03:38:27;;;;;;;12.05;4.45;;;8.10;99.90;;;;;;5063847;28;20625;-77
2022/05/08 03:40:53;;;;;;;5.45;3.92;;;8.00;99.90;;;;;;5059197;28;20016;-77
2022/05/08 03:43:19;;;;;;;9.82;4.35;;;8.00;99.90;;;;;;5062136;28;20051;-77
2022/05/08 03:45:48;;;;;;;8.90;3.67;;;7.90;99.90;;;;;;5063525;28;20056;-77
2022/05/08 03:48:15;;;;;;;8.65;3.90;;;7.90;99.90;;;;;;5058875;28;20021;-77
2022/05/08 03:50:41;;;;;;;5.90;3.47;;;7.80;99.90;;;;;;5062578;28;20020;-76
2022/05/08 03:53:06;;;;;;;7.97;3.90;;;7.90;99.90;;;;;;5062873;28;20028;-77
2022/05/08 03:55:32;;;;;;;8.25;3.92;;;7.80;99.90;;;;;;5058814;28;20016;-77
2022/05/08 03:57:58;;;;;;;10.13;4.63;;;7.80;99.90;;;;;;5062734;28;20031;-77
2022/05/08 04:00:24;;;;;;;11.27;4.03;;;7.70;99.90;;;;;;5062267;28;20465;-76
2022/05/08 04:02:50;;;;;;;6.38;4.25;;;7.70;99.90;;;;;;5067530;23;20048;-77
2022/05/08 04:05:16;;;;;;;12.50;4.50;;;7.70;99.90;;;;;;5050655;28;20055;-77
2022/05/08 04:07:42;;;;;;;5.15;3.92;;;7.70;99.90;;;;;;5050549;28;20484;-77
2022/05/08 04:10:09;;;;;;;8.20;3.58;;;7.60;99.90;;;;;;5050859;28;20017;-77
2022/05/08 04:12:35;;;;;;;7.15;3.88;;;7.50;99.90;;;;;;5057790;28;20016;-77
2022/05/08 04:15:01;;;;;;;6.47;3.65;;;7.40;99.90;;;;;;5060903;28;20052;-77
2022/05/08 04:17:28;;;;;;;6.40;3.65;;;7.50;99.90;;;;;;5057558;28;20064;-77
2022/05/08 04:19:57;;;;;;;4.95;3.47;;;7.40;99.90;;;;;;5057937;28;20135;-76
2022/05/08 04:25:08;;;;;;;10.52;4.57;;;7.30;99.90;;;;;;5059669;28;20032;-77
2022/05/08 04:27:35;;;;;;;6.45;4.20;;;7.30;99.90;;;;;;5057491;28;20071;-77
2022/05/08 04:30:02;;;;;;;12.32;4.30;;;7.30;99.90;;;;;;5062388;28;20026;-77
2022/05/08 04:32:28;;;;;;;11.95;4.40;;;7.30;99.90;;;;;;5055981;28;20029;-77
2022/05/08 04:34:53;;;;;;;8.18;3.83;;;7.30;99.90;;;;;;5059844;28;20064;-77
2022/05/08 04:37:19;;;;;;;8.02;4.40;;;7.30;99.90;;;;;;5057624;28;20025;-77
2022/05/08 04:39:45;;;;;;;8.50;4.80;;;7.40;99.90;;;;;;5060881;28;20403;-77
2022/05/08 04:42:11;;;;;;;12.05;4.97;;;7.40;99.90;;;;;;5061285;28;20021;-77
2022/05/08 04:44:37;;;;;;;9.75;4.75;;;7.50;99.90;;;;;;5057741;28;20031;-77
2022/05/08 04:47:03;;;;;;;9.48;4.95;;;7.60;99.90;;;;;;5060424;28;20104;-77
2022/05/08 04:49:29;;;;;;;12.50;5.28;;;7.60;99.90;;;;;;5061057;28;20097;-77
2022/05/08 04:51:55;;;;;;;8.10;4.57;;;7.60;99.90;;;;;;5057597;28;20035;-77
2022/05/08 04:54:23;;;;;;;10.43;4.15;;;7.70;99.90;;;;;;5061363;28;20024;-77
2022/05/08 04:56:49;;;;;;;8.18;4.88;;;7.70;99.90;;;;;;5060816;28;20500;-77
2022/05/08 04:59:15;;;;;;;11.85;5.15;;;7.70;99.90;;;;;;5057597;28;20052;-77
2022/05/08 05:01:41;;;;;;;8.98;4.68;;;7.80;99.90;;;;;;5080967;23;20552;-76
2022/05/08 05:04:07;;;;;;;8.65;4.97;;;7.80;99.90;;;;;;5068991;28;20119;-76
2022/05/08 05:06:32;;;;;;;10.48;4.80;;;7.80;99.90;;;;;;5070488;28;20059;-76
2022/05/08 05:08:58;;;;;;;10.80;5.45;;;7.90;99.90;;;;;;5070373;28;20048;-76
2022/05/08 05:11:24;;;;;;;10.73;5.15;;;8.00;99.90;;;;;;5065807;28;20466;-76
2022/05/08 05:13:50;;;;;;;11.98;5.30;;;8.00;99.90;;;;;;5050529;28;20028;-76
2022/05/08 05:16:15;;;;;;;11.75;5.20;;;8.00;99.90;;;;;;5050159;28;20025;-76
2022/05/08 05:18:41;;;;;;;8.50;5.32;;;8.00;99.90;;;;;;5050059;28;20094;-76
2022/05/08 05:21:07;;;;;;;11.18;5.38;;;8.00;99.90;;;;;;5050022;28;20382;-76
2022/05/08 05:23:35;;;;;;;11.95;5.07;;;8.10;99.90;;;;;;5049941;28;20025;-76
2022/05/08 05:26:01;;;;;;;10.65;5.38;;;8.20;99.90;;;;;;5049854;28;20132;-76
2022/05/08 05:28:27;;;;;;;9.38;4.90;;;8.30;99.90;;;;;;5050129;28;20112;-76
2022/05/08 05:30:53;;;;;;;10.35;5.63;;;8.30;99.90;;;;;;5056829;28;20033;-76
2022/05/08 05:33:19;;;;;;;12.55;5.38;;;8.30;99.90;;;;;;5049705;28;20021;-76
2022/05/08 05:35:45;;;;;;;9.38;5.00;;;8.30;99.90;;;;;;5048125;28;20040;-76
2022/05/08 05:38:10;;;;;;;8.10;4.43;;;8.50;99.90;;;;;;5056922;28;20029;-76
2022/05/08 05:40:36;;;;;;;12.23;6.22;;;8.50;99.90;;;;;;5053875;28;20029;-76
2022/05/08 05:43:02;;;;;;;12.10;5.45;;;8.70;99.90;;;;;;5053515;28;20489;-77
2022/05/08 05:45:27;;;;;;;12.60;6.43;;;8.70;99.90;;;;;;5053774;28;20027;-77
2022/05/08 05:47:53;;;;;;;11.13;5.68;;;8.70;99.90;;;;;;5053784;28;20025;-76
2022/05/08 05:50:23;;;;;;;11.18;5.82;;;8.70;99.90;;;;;;5054101;28;20021;-76
2022/05/08 05:52:51;;;;;;;14.15;5.07;;;8.80;99.90;;;;;;5046995;28;20075;-76
2022/05/08 05:55:17;;;;;;;12.82;5.20;;;8.90;99.90;;;;;;5053842;28;20490;-76
2022/05/08 05:57:43;;;;;;;6.90;4.28;;;8.90;99.90;;;;;;5052486;28;20393;-76
2022/05/08 06:00:16;;;;;;;11.10;5.55;;;9.00;99.90;;;;;;5053780;28;20074;-76
2022/05/08 06:02:45;;;;;;;14.30;5.40;;;9.10;99.90;;;;;;5054185;28;20032;-76
2022/05/08 06:05:12;;;;;;;9.52;4.47;;;9.40;99.90;;;;;;5053926;28;20064;-76
2022/05/08 06:07:39;;;;;;;10.50;5.32;;;9.60;99.90;;;;;;5054029;28;20037;-76
2022/05/08 06:10:07;;;;;;;10.63;4.30;;;10.00;99.90;;;;;;5051951;28;20375;-76
2022/05/08 06:12:33;;;;;;;10.15;4.10;;;10.50;99.90;;;;;;5052860;28;20268;-76
2022/05/08 06:14:59;;;;;;;7.88;4.30;;;10.80;99.90;;;;;;5053406;28;20029;-76
2022/05/08 06:17:25;;;;;;;7.43;3.40;;;11.00;99.90;;;;;;5053176;28;20544;-77
2022/05/08 06:19:51;;;;;;;7.75;3.55;;;11.10;99.90;;;;;;5053327;28;20025;-76
2022/05/08 06:22:18;;;;;;;8.40;3.65;;;11.20;99.90;;;;;;5053402;28;20033;-76
2022/05/08 06:24:44;;;;;;;8.55;3.88;;;11.20;99.90;;;;;;5053341;28;20075;-77
2022/05/08 06:27:10;;;;;;;8.13;3.83;;;11.20;99.90;;;;;;5052547;28;20425;-78
2022/05/08 06:29:36;;;;;;;5.60;3.75;;;11.20;99.90;;;;;;5052298;28;20111;-78
2022/05/08 06:32:02;;;;;;;7.82;3.35;;;11.20;99.90;;;;;;5052734;28;20086;-77
2022/05/08 06:34:28;;;;;;;8.05;4.07;;;11.20;99.90;;;;;;5053103;28;20036;-77
2022/05/08 06:36:54;;;;;;;10.65;3.80;;;11.20;99.90;;;;;;5053111;28;20124;-77
2022/05/08 06:39:20;;;;;;;7.70;3.33;;;11.20;99.90;;;;;;5051931;28;20108;-78
2022/05/08 06:41:46;;;;;;;6.78;2.75;;;11.30;99.90;;;;;;5052393;28;20021;-78
2022/05/08 06:44:15;;;;;;;9.18;3.17;;;11.30;99.90;;;;;;5052825;28;20028;-77
2022/05/08 06:46:41;;;;;;;6.80;3.33;;;11.30;99.90;;;;;;5052318;28;20036;-78
2022/05/08 06:49:07;;;;;;;9.55;3.00;;;11.40;99.90;;;;;;5052532;28;20029;-78
2022/05/08 06:51:36;;;;;;;7.78;3.17;;;11.40;99.90;;;;;;5052763;28;20094;-77
2022/05/08 06:54:02;;;;;;;12.70;3.85;;;11.50;99.90;;;;;;5052876;28;20487;-78
2022/05/08 06:56:30;;;;;;;8.40;3.72;;;11.60;99.90;;;;;;5052730;28;20025;-78
2022/05/08 07:01:43;;;;;;;5.85;3.10;;;11.70;99.90;;;;;;5077684;23;20141;-76
2022/05/08 07:04:10;;;;;;;8.48;2.88;;;11.70;99.90;;;;;;5068177;28;20060;-78
2022/05/08 07:06:37;;;;;;;6.97;2.80;;;11.70;99.90;;;;;;5072474;28;20477;-77
2022/05/08 07:09:04;;;;;;;8.50;2.70;;;11.70;99.90;;;;;;5072881;28;20489;-77
2022/05/08 07:11:33;;;;;;;7.65;2.50;;;11.80;99.90;;;;;;5067041;28;20032;-77
2022/05/08 07:14:00;;;;;;;6.88;2.20;;;11.80;99.90;;;;;;5052400;28;20499;-76
2022/05/08 07:16:26;;;;;;;10.05;3.35;;;11.80;99.90;;;;;;5052390;28;20039;-77
2022/05/08 07:18:52;;;;;;;10.48;3.13;;;11.80;99.90;;;;;;5051422;28;20159;-76
2022/05/08 07:21:21;;;;;;;6.13;2.13;;;11.90;99.90;;;;;;5032413;28;20462;-76
2022/05/08 07:23:47;;;;;;;7.47;2.33;;;11.90;99.90;;;;;;5050836;28;20100;-76
2022/05/08 07:26:14;;;;;;;9.65;2.60;;;11.90;99.90;;;;;;5032558;28;20112;-77
2022/05/08 07:28:40;;;;;;;10.70;2.65;;;12.00;99.90;;;;;;5050552;28;20430;-76
2022/05/08 07:31:06;;;;;;;5.53;2.15;;;12.10;99.90;;;;;;5050963;28;20069;-77
2022/05/08 07:33:34;;;;;;;10.50;3.15;;;12.10;99.90;;;;;;5034206;28;20064;-76
2022/05/08 07:36:13;;;;;;;5.40;2.20;;;12.10;99.90;;;;;;5052272;28;20466;-78
2022/05/08 07:38:46;;;;;;;8.82;2.15;;;12.20;99.90;;;;;;5034196;28;20305;-77
2022/05/08 07:41:17;;;;;;;4.00;1.88;;;12.30;99.90;;;;;;5033490;28;20029;-76
2022/05/08 07:43:46;;;;;;;7.50;2.05;;;12.40;99.90;;;;;;5051598;28;20021;-75
2022/05/08 07:46:13;;;;;;;8.05;2.00;;;12.40;99.90;;;;;;5051504;28;20179;-76
2022/05/08 07:48:39;;;;;;;10.68;2.53;;;12.50;99.90;;;;;;5051129;28;20025;-74
2022/05/08 07:51:05;;;;;;;7.03;2.08;;;12.50;99.90;;;;;;5032954;28;20036;-77
2022/05/08 07:53:33;;;;;;;7.15;1.95;;;12.60;99.90;;;;;;5053066;28;20024;-77
2022/05/08 07:55:59;;;;;;;6.32;2.17;;;12.60;99.90;;;;;;5050451;28;20066;-75
2022/05/08 07:58:32;;;;;;;4.35;1.95;;;12.70;99.90;;;;;;5050198;28;20025;-77
2022/05/08 08:00:59;;;;;;;11.57;2.03;;;12.80;99.90;;;;;;5049263;28;20755;-76
2022/05/08 08:03:28;;;;;;;5.72;1.58;;;12.90;99.90;;;;;;5050657;28;20029;-76
2022/05/08 08:05:54;;;;;;;11.75;2.20;;;13.00;99.90;;;;;;5050714;28;20021;-76
2022/05/08 08:08:23;;;;;;;4.13;1.70;;;13.00;99.90;;;;;;5051235;28;20035;-76
2022/05/08 08:10:53;;;;;;;13.75;2.67;;;13.10;99.90;;;;;;5051255;28;20033;-77
2022/05/08 08:13:22;;;;;;;10.48;2.42;;;13.20;99.90;;;;;;5051041;28;20028;-77
2022/05/08 08:15:48;;;;;;;9.35;1.95;;;13.30;99.90;;;;;;5051080;28;20037;-74
2022/05/08 08:18:15;;;;;;;8.52;1.38;;;13.40;99.90;;;;;;5038498;28;20029;-78
2022/05/08 08:20:41;;;;;;;7.75;1.70;;;13.50;99.90;;;;;;5057881;28;20033;-77
2022/05/08 08:23:08;;;;;;;6.03;1.88;;;13.60;99.90;;;;;;5050553;28;20100;-77
2022/05/08 08:25:33;;;;;;;11.48;2.17;;;13.70;99.90;;;;;;5057513;28;20033;-77
2022/05/08 08:27:59;;;;;;;8.18;1.83;;;13.70;99.90;;;;;;5032994;28;20797;-76
2022/05/08 08:30:25;;;;;;;7.85;1.50;;;13.80;99.90;;;;;;5051143;28;21236;-77
2022/05/08 08:32:51;;;;;;;7.45;1.65;;;13.80;99.90;;;;;;5070722;23;20089;-77
2022/05/08 08:35:17;;;;;;;4.38;1.30;;;14.00;99.90;;;;;;5070508;28;20047;-77
2022/05/08 08:37:42;;;;;;;7.45;1.95;;;14.10;99.90;;;;;;5070931;28;20035;-77
2022/05/08 08:40:09;;;;;;;6.53;1.90;;;14.40;99.90;;;;;;5071397;28;20380;-77
2022/05/08 08:42:41;;;;;;;10.55;1.98;;;14.90;99.90;;;;;;5076060;28;20035;-77
2022/05/08 08:47:52;;;;;;;3.45;1.40;;;16.30;99.90;;;;;;5080104;28;20086;-83
2022/05/08 08:50:19;;;;;;;8.48;1.45;;;17.30;96.60;;;;;;5084006;28;20016;-81
2022/05/08 08:52:46;;;;;;;3.75;1.00;;;17.80;93.30;;;;;;5080745;28;20396;-77
2022/05/08 08:55:12;;;;;;;5.18;1.92;;;18.40;91.10;;;;;;5082247;28;20027;-78
2022/05/08 08:57:38;;;;;;;4.43;1.40;;;19.00;85.50;;;;;;5077064;28;20025;-77
2022/05/08 09:00:08;;;;;;;7.60;1.75;;;19.30;83.00;;;;;;5083714;28;20028;-78
2022/05/08 09:02:34;;;;;;;6.72;1.38;;;20.00;80.30;;;;;;5083496;28;20063;-78
2022/05/08 09:05:07;;;;;;;5.05;1.08;;;20.90;76.70;;;;;;5088297;28;20089;-79
2022/05/08 09:07:41;;;;;;;5.15;1.10;;;21.20;69.60;;;;;;5077820;28;20119;-78
2022/05/08 09:10:18;;;;;;;9.43;1.50;;;21.70;66.60;;;;;;5078571;28;20013;-78
2022/05/08 09:12:45;;;;;;;6.35;1.30;;;22.00;66.20;;;;;;5082323;28;20077;-78
2022/05/08 09:15:22;;;;;;;6.82;1.20;;;22.50;64.30;;;;;;5081837;28;20016;-78
2022/05/08 09:17:53;;;;;;;4.05;0.85;;;22.70;64.20;;;;;;5078356;28;20032;-78
2022/05/08 09:20:27;;;;;;;5.75;1.15;;;22.30;61.30;;;;;;5083429;28;20052;-78
2022/05/08 09:23:19;;;;;;;5.82;1.42;;;22.20;60.60;;;;;;5083072;28;20016;-79
2022/05/08 09:25:59;;;;;;;6.25;1.90;;;21.40;61.50;;;;;;5071594;28;20035;-81
2022/05/08 09:28:41;;;;;;;4.70;0.98;;;21.90;61.60;;;;;;5078126;28;20438;-80
2022/05/08 09:33:44;;;;;;;4.97;1.02;;;22.90;59.20;;;;;;5065488;28;20032;-78
2022/05/08 09:36:19;;;;;;;4.05;0.95;;;23.80;54.00;;;;;;5070203;28;20016;-78
2022/05/08 09:38:51;;;;;;;5.35;0.80;;;24.10;52.80;;;;;;5070052;28;20056;-78
2022/05/08 09:41:28;;;;;;;3.15;1.05;;;24.60;52.70;;;;;;5054096;28;20028;-79
2022/05/08 09:43:55;;;;;;;3.33;0.90;;;24.90;50.30;;;;;;5083375;28;20052;-79
2022/05/08 09:46:21;;;;;;;2.60;0.90;;;25.00;50.70;;;;;;5089561;28;20008;-78
2022/05/08 09:48:49;;;;;;;5.78;1.50;;;24.50;51.60;;;;;;5089358;28;20107;-78
2022/05/08 09:51:15;;;;;;;4.60;1.15;;;24.90;51.30;;;;;;5087963;28;20040;-79
2022/05/08 09:53:43;;;;;;;2.22;0.50;;;26.10;50.20;;;;;;5087927;28;20027;-79
2022/05/08 09:56:10;;;;;;;3.58;0.88;;;26.50;45.70;;;;;;5087842;28;20035;-78
2022/05/08 09:58:39;;;;;;;4.00;1.13;;;27.20;45.10;;;;;;5088311;28;20628;-78
2022/05/08 10:01:07;;;;;;;3.67;1.13;;;27.50;44.90;;;;;;5081168;28;20109;-79
2022/05/08 10:03:33;;;;;;;4.47;0.82;;;28.00;42.50;;;;;;5062517;28;20024;-79
2022/05/08 10:06:00;;;;;;;2.33;0.50;;;28.10;42.90;;;;;;5087518;28;20012;-79
2022/05/08 10:08:37;;;;;;;4.70;1.00;;;28.00;40.20;;;;;;5089147;28;20012;-79
2022/05/08 10:13:53;;;;;;;4.85;0.98;;;27.50;40.70;;;;;;5089795;28;20081;-79
2022/05/08 10:16:45;;;;;;;4.22;0.80;;;27.00;41.30;;;;;;5089291;28;20020;-79
2022/05/08 10:19:30;;;;;;;4.32;1.00;;;27.70;42.80;;;;;;5089009;28;20437;-79
2022/05/08 10:22:13;;;;;;;3.90;0.82;;;27.20;41.10;;;;;;5064912;28;20028;-78
2022/05/08 10:24:47;;;;;;;5.25;0.90;;;27.50;41.70;;;;;;5090247;28;20059;-78
2022/05/08 10:27:21;;;;;;;2.72;0.70;;;28.00;41.40;;;;;;5093078;28;20031;-78
2022/05/08 10:29:49;;;;;;;4.68;1.20;;;28.10;39.60;;;;;;5092807;28;20381;-78
2022/05/08 10:32:33;;;;;;;2.65;0.57;;;28.50;39.50;;;;;;5110245;22;20148;-78
2022/05/08 10:35:09;;;;;;;2.45;0.63;;;29.00;37.70;;;;;;5065474;28;20096;-79
2022/05/08 10:37:38;;;;;;;4.57;1.05;;;29.50;36.90;;;;;;5066535;28;20017;-79
2022/05/08 10:40:25;;;;;;;4.47;0.73;;;30.20;37.20;;;;;;5072811;28;20016;-78
2022/05/08 10:42:59;;;;;;;3.63;0.73;;;30.00;36.60;;;;;;5078670;28;20019;-78
2022/05/08 10:45:33;;;;;;;4.93;1.40;;;29.00;39.30;;;;;;5082301;28;20020;-78
2022/05/08 10:48:07;;;;;;;3.47;0.47;;;29.80;37.10;;;;;;5081556;28;20036;-78
2022/05/08 10:50:40;;;;;;;4.65;0.68;;;30.60;36.30;;;;;;5084941;28;20519;-78
2022/05/08 10:53:06;;;;;;;4.07;0.70;;;29.90;34.50;;;;;;5085169;28;20451;-78
2022/05/08 10:55:33;;;;;;;6.10;1.33;;;30.90;36.50;;;;;;5081775;28;20088;-77
2022/05/08 10:57:59;;;;;;;1.83;0.65;;;31.60;33.10;;;;;;5086025;28;20020;-78
2022/05/08 11:00:27;;;;;;;2.63;0.68;;;32.30;36.10;;;;;;5079414;28;20027;-78
2022/05/08 11:03:03;;;;;;;4.57;1.13;;;32.20;33.70;;;;;;5084221;28;20024;-78
2022/05/08 11:05:34;;;;;;;4.07;0.70;;;31.10;35.60;;;;;;5080211;28;20021;-78
2022/05/08 11:08:02;;;;;;;5.05;1.05;;;31.80;33.40;;;;;;5080558;28;20047;-78
2022/05/08 11:10:30;;;;;;;4.70;0.90;;;31.70;32.70;;;;;;5085450;28;20085;-85
2022/05/08 11:13:09;;;;;;;5.38;1.00;;;31.90;34.50;;;;;;5080307;28;20143;-79
2022/05/08 11:15:41;;;;;;;3.72;0.77;;;32.00;36.40;;;;;;5083276;28;20103;-79
2022/05/08 11:18:15;;;;;;;4.78;1.20;;;32.30;32.40;;;;;;5082505;28;21917;-79
2022/05/08 11:20:51;;;;;;;1.60;0.47;;;33.30;33.10;;;;;;5080415;28;20056;-79
2022/05/08 11:23:21;;;;;;;2.65;0.75;;;33.50;33.00;;;;;;5084545;28;20055;-78
2022/05/08 11:25:58;;;;;;;4.10;0.90;;;33.50;33.50;;;;;;5078763;28;20012;-78
2022/05/08 11:28:25;;;;;;;2.08;0.80;;;33.70;31.80;;;;;;5084387;28;20111;-79
2022/05/08 11:30:53;;;;;;;2.45;0.60;;;33.00;31.70;;;;;;5081792;28;20031;-79
2022/05/08 11:36:25;;;;;;;3.78;0.65;;;33.50;32.20;;;;;;5071143;28;20086;-78
2022/05/08 11:39:02;;;;;;;4.82;1.23;;;31.40;30.20;;;;;;5072172;28;20021;-78
2022/05/08 11:41:36;;;;;;;1.92;0.60;;;30.90;36.20;;;;;;5073521;28;20104;-78
2022/05/08 11:44:15;;;;;;;3.58;0.80;;;32.10;32.00;;;;;;5080509;28;20594;-77
2022/05/08 11:46:44;;;;;;;6.72;0.82;;;30.70;31.10;;;;;;5079313;28;20591;-77
2022/05/08 11:49:19;;;;;;;4.05;0.95;;;30.80;33.20;;;;;;5080897;28;20376;-78
2022/05/08 11:51:52;;;;;;;3.17;0.57;;;32.30;31.50;;;;;;5081466;28;20499;-77
2022/05/08 11:54:35;;;;;;;2.85;0.90;;;32.80;31.10;;;;;;5079355;28;20016;-77
2022/05/08 11:57:17;;;;;;;4.53;0.82;;;31.70;30.10;;;;;;5082902;28;20048;-78
2022/05/08 12:00:04;;;;;;;2.72;0.75;;;32.60;31.90;;;;;;5085423;28;20095;-78
2022/05/08 12:02:38;;;;;;;4.28;0.77;;;33.20;29.60;;;;;;5073622;28;20027;-79
2022/05/08 12:05:05;;;;;;;4.03;0.60;;;32.70;29.50;;;;;;5083410;28;20023;-78
2022/05/08 12:07:38;;;;;;;2.05;0.50;;;33.70;31.20;;;;;;5082433;28;20026;-78
2022/05/08 12:10:05;;;;;;;2.92;0.43;;;35.50;30.80;;;;;;5083669;28;20024;-77
2022/05/08 12:12:36;;;;;;;1.85;0.50;;;36.10;27.70;;;;;;5082362;28;20139;-77
2022/05/08 12:15:08;;;;;;;;;;;36.40;26.80;;;;;;5078094;28;20370;-76
2022/05/08 12:17:39;;;;;;;5.55;0.93;;;35.50;27.90;;;;;;5078920;28;20361;-77
2022/05/08 12:20:26;;;;;;;4.38;0.70;;;33.60;28.20;;;;;;5086232;28;20099;-78
2022/05/08 12:23:03;;;;;;;4.15;0.80;;;34.00;31.90;;;;;;5074185;28;20020;-78
2022/05/08 12:25:30;;;;;;;2.42;0.57;;;34.70;28.40;;;;;;5080119;28;20022;-78
2022/05/08 12:27:56;;;;;;;2.40;0.77;;;34.10;28.90;;;;;;5081307;28;20020;-78
2022/05/08 12:30:22;;;;;;;3.03;0.60;;;33.80;28.30;;;;;;5082029;28;20107;-78
2022/05/08 12:32:47;;;;;;;3.35;0.70;;;34.20;29.30;;;;;;5089824;23;20128;-77
2022/05/08 12:35:14;;;;;;;3.28;0.70;;;34.50;29.40;;;;;;5070857;28;20156;-79
2022/05/08 12:37:40;;;;;;;4.07;0.90;;;34.70;28.30;;;;;;5068860;28;20050;-78
2022/05/08 12:40:07;;;;;;;4.25;0.90;;;34.70;27.60;;;;;;5070012;28;20048;-80
2022/05/08 12:42:33;;;;;;;3.03;0.73;;;34.00;27.50;;;;;;5073502;28;20472;-80
2022/05/08 12:44:59;;;;;;;3.97;0.73;;;33.60;30.40;;;;;;5083362;28;20036;-79
2022/05/08 12:47:25;;;;;;;2.17;1.02;;;33.80;28.40;;;;;;5079263;28;20021;-79
2022/05/08 12:49:53;;;;;;;2.95;0.65;;;33.20;28.60;;;;;;5079128;28;20051;-80
2022/05/08 12:52:19;;;;;;;3.70;0.57;;;32.80;29.20;;;;;;5082400;28;20022;-80
2022/05/08 12:54:46;;;;;;;3.28;0.55;;;32.60;28.90;;;;;;5082644;28;20366;-79
2022/05/08 12:59:42;;;;;;;3.28;0.80;;;33.60;27.70;;;;;;5081604;28;20110;-79
2022/05/08 12:59:59;;;;;;;1.55;0.68;;;33.80;27.80;;;;;;5083743;28;20028;-80
2022/05/08 13:02:26;;;;;;;1.80;0.70;;;32.50;28.40;;;;;;5082659;28;20056;-80
2022/05/08 13:04:53;;;;;;;3.78;0.80;;;33.50;28.90;;;;;;5079100;28;20108;-80
2022/05/08 13:07:19;;;;;;;4.70;0.68;;;34.30;27.70;;;;;;5082235;28;20697;-80
2022/05/08 13:09:45;;;;;;;4.50;0.70;;;34.70;27.60;;;;;;5082570;28;20016;-80
2022/05/08 13:12:12;;;;;;;4.95;0.63;;;34.40;27.80;;;;;;5077891;28;20024;-80
2022/05/08 13:14:37;;;;;;;4.45;1.02;;;34.80;27.20;;;;;;5065524;28;20020;-80
2022/05/08 13:17:05;;;;;;;4.47;1.35;;;34.90;27.70;;;;;;5059514;28;20020;-80
2022/05/08 13:19:33;;;;;;;0.82;0.40;;;35.60;26.10;;;;;;5082517;28;20099;-80